createdAt,value
2018-12-13T00:00:19.988Z,9.80
2018-12-13T00:02:49.115Z,8.50
2018-12-13T00:05:17.664Z,9.55
2018-12-13T00:07:45.896Z,9.20
2018-12-13T00:10:14.156Z,8.85
2018-12-13T00:12:42.484Z,9.63
2018-12-13T00:15:10.672Z,9.35
2018-12-13T00:17:38.879Z,9.48
2018-12-13T00:20:07.400Z,9.28
2018-12-13T00:22:35.593Z,9.08
2018-12-13T00:25:03.988Z,9.70
2018-12-13T00:27:32.228Z,10.23
2018-12-13T00:30:00.432Z,9.33
2018-12-13T00:32:28.664Z,9.60
2018-12-13T00:34:56.848Z,11.00
2018-12-13T00:37:25.085Z,9.63
2018-12-13T00:39:53.274Z,10.50
2018-12-13T00:42:21.492Z,11.48
2018-12-13T00:44:49.696Z,10.90
2018-12-13T00:47:17.939Z,9.90
2018-12-13T00:49:46.134Z,10.45
2018-12-13T00:52:14.356Z,11.68
2018-12-13T00:54:42.544Z,10.20
2018-12-13T00:57:10.844Z,10.63
2018-12-13T00:59:39.123Z,10.72
2018-12-13T01:02:07.317Z,10.40
2018-12-13T01:04:35.532Z,10.18
2018-12-13T01:07:03.838Z,10.30
2018-12-13T01:09:32.020Z,10.90
2018-12-13T01:12:00.304Z,10.40
2018-12-13T01:14:28.507Z,10.38
2018-12-13T01:16:56.705Z,10.95
2018-12-13T01:19:24.895Z,10.35
2018-12-13T01:21:53.109Z,10.13
2018-12-13T01:24:21.325Z,10.30
2018-12-13T01:26:49.520Z,11.85
2018-12-13T01:29:17.768Z,12.20
2018-12-13T01:31:45.996Z,11.28
2018-12-13T01:34:14.183Z,11.70
2018-12-13T01:36:42.416Z,11.55
2018-12-13T01:39:10.623Z,12.53
2018-12-13T01:41:38.795Z,11.25
2018-12-13T01:44:07.096Z,11.90
2018-12-13T01:46:35.338Z,11.90
2018-12-13T01:49:03.548Z,12.25
2018-12-13T01:51:31.772Z,11.90
2018-12-13T01:53:59.968Z,12.20
2018-12-13T01:56:28.176Z,12.60
2018-12-13T01:58:56.372Z,13.50
2018-12-13T02:01:24.661Z,13.45
2018-12-13T02:03:52.899Z,13.28
2018-12-13T02:06:21.103Z,13.00
2018-12-13T02:08:49.308Z,13.83
2018-12-13T02:11:17.579Z,13.83
2018-12-13T02:13:45.791Z,13.55
2018-12-13T02:16:14.012Z,13.85
2018-12-13T02:18:42.241Z,14.10
2018-12-13T02:21:10.540Z,14.35
2018-12-13T02:23:38.805Z,14.83
2018-12-13T02:26:06.989Z,15.17
2018-12-13T02:28:35.208Z,14.87
2018-12-13T02:31:03.503Z,15.75
2018-12-13T02:33:31.712Z,15.10
2018-12-13T02:35:59.929Z,15.95
2018-12-13T02:38:28.135Z,16.42
2018-12-13T02:40:56.345Z,16.53
2018-12-13T02:43:24.547Z,16.10
2018-12-13T02:45:52.741Z,16.40
2018-12-13T02:48:20.986Z,16.25
2018-12-13T02:50:49.201Z,15.80
2018-12-13T02:53:17.482Z,15.90
2018-12-13T02:55:45.673Z,16.27
2018-12-13T02:58:13.891Z,15.97
2018-12-13T03:00:42.079Z,15.05
2018-12-13T03:03:10.289Z,14.43
2018-12-13T03:05:38.488Z,14.55
2018-12-13T03:08:06.802Z,14.50
2018-12-13T03:10:35.001Z,13.60
2018-12-13T03:13:03.204Z,14.03
2018-12-13T03:15:31.418Z,14.57
2018-12-13T03:17:59.716Z,13.50
2018-12-13T03:20:27.921Z,13.95
2018-12-13T03:22:56.140Z,15.08
2018-12-13T03:25:24.372Z,14.30
2018-12-13T03:30:43.418Z,14.00
2018-12-13T03:33:11.705Z,13.18
2018-12-13T03:35:39.896Z,13.93
2018-12-13T03:38:08.164Z,12.47
2018-12-13T03:40:36.648Z,12.53
2018-12-13T03:43:04.855Z,12.10
2018-12-13T03:45:33.060Z,12.00
2018-12-13T03:48:01.249Z,12.58
2018-12-13T03:50:29.458Z,11.78
2018-12-13T03:52:57.755Z,11.70
2018-12-13T03:55:25.956Z,11.28
2018-12-13T03:57:54.161Z,11.10
2018-12-13T04:00:22.352Z,11.30
2018-12-13T04:02:50.540Z,11.28
2018-12-13T04:05:18.764Z,10.90
2018-12-13T04:07:46.943Z,11.55
2018-12-13T04:10:15.152Z,11.17
2018-12-13T04:12:43.359Z,12.00
2018-12-13T04:15:11.557Z,11.60
2018-12-13T04:17:39.750Z,11.53
2018-12-13T04:20:08.116Z,11.70
2018-12-13T04:22:36.288Z,10.95
2018-12-13T04:25:04.709Z,11.45
2018-12-13T04:27:32.905Z,11.97
2018-12-13T04:30:01.104Z,11.35
2018-12-13T04:32:29.351Z,10.98
2018-12-13T04:34:57.548Z,10.70
2018-12-13T04:37:25.787Z,11.25
2018-12-13T04:39:54.078Z,10.87
2018-12-13T04:42:22.296Z,11.95
2018-12-13T04:44:50.512Z,11.85
2018-12-13T04:47:18.709Z,12.70
2018-12-13T04:49:46.924Z,11.50
2018-12-13T04:52:15.136Z,11.50
2018-12-13T04:54:43.353Z,10.10
2018-12-13T04:57:11.528Z,10.30
2018-12-13T04:59:39.740Z,11.83
2018-12-13T05:02:08.003Z,11.50
2018-12-13T05:04:36.227Z,11.70
2018-12-13T05:07:04.500Z,10.75
2018-12-13T05:09:32.733Z,11.88
2018-12-13T05:12:00.912Z,11.05
2018-12-13T05:14:29.184Z,10.93
2018-12-13T05:16:57.402Z,11.60
2018-12-13T05:19:25.576Z,11.73
2018-12-13T05:21:53.788Z,11.57
2018-12-13T05:24:21.976Z,11.30
2018-12-13T05:26:50.172Z,11.80
2018-12-13T05:29:18.387Z,11.38
2018-12-13T05:31:46.631Z,11.75
2018-12-13T05:34:14.820Z,11.20
2018-12-13T05:36:43.038Z,12.10
2018-12-13T05:39:11.228Z,12.00
2018-12-13T05:41:39.452Z,11.63
2018-12-13T05:44:07.684Z,12.63
2018-12-13T05:46:35.910Z,13.40
2018-12-13T05:49:04.203Z,13.22
2018-12-13T05:51:32.516Z,13.13
2018-12-13T05:54:00.708Z,13.05
2018-12-13T05:56:28.892Z,13.70
2018-12-13T05:58:57.164Z,13.65
2018-12-13T06:01:25.365Z,12.98
2018-12-13T06:03:53.552Z,13.05
2018-12-13T06:06:21.800Z,13.03
2018-12-13T06:08:50.397Z,13.83
2018-12-13T06:11:18.599Z,13.70
2018-12-13T06:13:46.807Z,13.68
2018-12-13T06:16:14.996Z,14.43
2018-12-13T06:18:43.175Z,12.80
2018-12-13T06:21:11.956Z,13.30
2018-12-13T06:23:40.264Z,14.45
2018-12-13T06:26:08.471Z,13.05
2018-12-13T06:28:36.659Z,13.93
2018-12-13T06:31:04.851Z,13.20
2018-12-13T06:33:33.070Z,14.18
2018-12-13T06:36:01.260Z,12.35
2018-12-13T06:38:29.456Z,12.25
2018-12-13T06:40:57.771Z,12.78
2018-12-13T06:43:26.056Z,12.70
2018-12-13T06:45:54.260Z,12.90
2018-12-13T06:48:22.435Z,13.13
2018-12-13T06:50:50.740Z,12.55
2018-12-13T06:53:18.928Z,13.22
2018-12-13T06:55:47.147Z,13.80
2018-12-13T06:58:15.325Z,13.40
2018-12-13T07:00:43.533Z,14.07
2018-12-13T07:03:11.738Z,13.53
2018-12-13T07:05:39.952Z,12.47
2018-12-13T07:08:08.209Z,14.07
2018-12-13T07:10:36.432Z,13.20
2018-12-13T07:13:04.639Z,13.40
2018-12-13T07:15:32.923Z,13.45
2018-12-13T07:18:01.120Z,13.07
2018-12-13T07:20:29.320Z,13.27
2018-12-13T07:22:57.508Z,14.00
2018-12-13T07:25:25.712Z,13.00
2018-12-13T07:27:54.026Z,13.85
2018-12-13T07:30:22.228Z,12.80
2018-12-13T07:32:50.520Z,12.82
2018-12-13T07:35:18.816Z,12.98
2018-12-13T07:37:47.012Z,13.30
2018-12-13T07:40:15.204Z,13.03
2018-12-13T07:42:43.396Z,12.95
2018-12-13T07:45:11.600Z,12.80
2018-12-13T07:47:39.801Z,12.33
2018-12-13T07:50:08.264Z,13.18
2018-12-13T07:52:36.478Z,14.30
2018-12-13T07:55:05.060Z,13.72
2018-12-13T07:57:33.348Z,12.13
2018-12-13T08:00:01.529Z,12.63
2018-12-13T08:02:29.712Z,13.00
2018-12-13T08:04:58.020Z,13.43
2018-12-13T08:07:26.199Z,14.23
2018-12-13T08:09:54.480Z,13.85
2018-12-13T08:12:22.684Z,13.93
2018-12-13T08:14:50.889Z,14.13
2018-12-13T08:17:19.125Z,14.70
2018-12-13T08:19:47.315Z,14.45
2018-12-13T08:22:15.504Z,14.20
2018-12-13T08:24:43.692Z,14.07
2018-12-13T08:27:11.893Z,14.68
2018-12-13T08:29:40.172Z,14.23
2018-12-13T08:32:08.380Z,13.80
2018-12-13T08:34:36.562Z,15.08
2018-12-13T08:37:04.760Z,15.53
2018-12-13T08:39:32.988Z,15.17
2018-12-13T08:42:01.226Z,15.23
2018-12-13T08:44:29.423Z,16.20
2018-12-13T08:46:57.611Z,15.03
2018-12-13T08:49:25.916Z,14.73
2018-12-13T08:51:54.101Z,14.75
2018-12-13T08:54:22.276Z,15.38
2018-12-13T08:56:50.478Z,14.38
2018-12-13T08:59:18.655Z,14.70
2018-12-13T09:01:47.670Z,15.10
2018-12-13T09:04:15.855Z,14.97
2018-12-13T09:06:44.064Z,16.12
2018-12-13T09:09:12.268Z,15.40
2018-12-13T09:11:40.556Z,15.85
2018-12-13T09:14:08.783Z,17.10
2018-12-13T09:16:37.072Z,17.17
2018-12-13T09:19:05.260Z,15.93
2018-12-13T09:21:33.461Z,17.15
2018-12-13T09:24:01.636Z,15.50
2018-12-13T09:26:29.872Z,16.50
2018-12-13T09:28:58.072Z,16.00
2018-12-13T09:31:26.277Z,17.05
2018-12-13T09:33:54.457Z,16.37
2018-12-13T09:36:22.653Z,16.67
2018-12-13T09:38:50.903Z,15.98
2018-12-13T09:41:19.116Z,17.12
2018-12-13T09:43:47.286Z,16.62
2018-12-13T09:46:15.560Z,17.12
2018-12-13T09:48:43.940Z,15.75
2018-12-13T09:51:12.168Z,16.97
2018-12-13T09:53:40.348Z,16.23
2018-12-13T09:56:08.536Z,16.77
2018-12-13T09:58:36.746Z,17.40
2018-12-13T10:01:04.932Z,17.80
2018-12-13T10:03:33.147Z,16.73
2018-12-13T10:06:01.375Z,16.85
2018-12-13T10:08:29.679Z,17.55
2018-12-13T10:10:57.968Z,17.07
2018-12-13T10:13:26.243Z,17.80
2018-12-13T10:15:54.430Z,16.97
2018-12-13T10:18:22.716Z,16.48
2018-12-13T10:20:50.916Z,16.60
2018-12-13T10:23:19.117Z,18.00
2018-12-13T10:25:47.292Z,17.10
2018-12-13T10:28:15.565Z,17.27
2018-12-13T10:30:43.747Z,17.17
2018-12-13T10:33:11.966Z,17.80
2018-12-13T10:35:40.148Z,15.68
2018-12-13T10:38:08.379Z,16.95
2018-12-13T10:40:36.606Z,15.50
2018-12-13T10:43:04.808Z,15.70
2018-12-13T10:45:33.085Z,15.70
2018-12-13T10:48:01.284Z,14.10
2018-12-13T10:50:29.470Z,14.65
2018-12-13T10:52:57.687Z,15.23
2018-12-13T10:55:26.007Z,14.20
2018-12-13T10:57:54.376Z,13.55
2018-12-13T11:00:28.044Z,13.68
2018-12-13T11:03:17.728Z,13.65
2018-12-13T11:05:45.906Z,11.90
2018-12-13T11:08:14.077Z,11.30
2018-12-13T11:10:42.272Z,11.40
2018-12-13T11:13:10.492Z,11.77
2018-12-13T11:15:39.922Z,11.17
2018-12-13T11:18:08.328Z,11.03
2018-12-13T11:20:36.590Z,11.87
2018-12-13T11:23:04.855Z,11.70
2018-12-13T11:25:33.050Z,12.30
2018-12-13T11:28:13.456Z,10.90
2018-12-13T11:30:41.717Z,10.83
2018-12-13T11:33:10.020Z,11.50
2018-12-13T11:35:38.179Z,12.23
2018-12-13T11:38:06.448Z,12.60
2018-12-13T11:40:34.617Z,11.43
2018-12-13T11:43:02.885Z,10.70
2018-12-13T11:45:31.228Z,10.40
2018-12-13T11:47:59.448Z,12.00
2018-12-13T11:50:27.620Z,10.50
2018-12-13T11:52:55.810Z,12.30
2018-12-13T11:55:31.484Z,12.37
2018-12-13T11:57:59.880Z,12.13
2018-12-13T12:00:28.268Z,10.77
2018-12-13T12:02:56.443Z,12.17
2018-12-13T12:05:24.732Z,11.57
2018-12-13T12:07:53.023Z,11.63
2018-12-13T12:10:21.329Z,11.67
2018-12-13T12:12:49.559Z,10.87
2018-12-13T12:15:17.820Z,10.87
2018-12-13T12:17:46.023Z,11.03
2018-12-13T12:20:14.196Z,11.50
2018-12-13T12:22:42.379Z,10.40
2018-12-13T12:25:10.645Z,11.30
2018-12-13T12:27:38.815Z,11.20
2018-12-13T12:30:07.600Z,11.60
2018-12-13T12:32:35.871Z,11.00
2018-12-13T12:35:04.572Z,10.70
2018-12-13T12:37:32.823Z,10.67
2018-12-13T12:40:01.041Z,11.00
2018-12-13T12:42:29.212Z,9.90
2018-12-13T12:44:57.520Z,10.40
2018-12-13T12:47:25.719Z,10.60
2018-12-13T12:49:54.135Z,9.90
2018-12-13T12:52:22.428Z,10.50
2018-12-13T12:54:50.604Z,9.93
2018-12-13T12:57:18.856Z,10.43
2018-12-13T12:59:47.072Z,10.37
2018-12-13T13:02:15.256Z,9.83
2018-12-13T13:04:43.564Z,9.93
2018-12-13T13:07:11.737Z,9.93
2018-12-13T13:09:40.024Z,10.27
2018-12-13T13:12:08.236Z,9.80
2018-12-13T13:14:36.408Z,9.27
2018-12-13T13:17:04.676Z,10.20
2018-12-13T13:19:32.843Z,10.97
2018-12-13T13:22:01.068Z,9.87
2018-12-13T13:24:29.260Z,10.23
2018-12-13T13:26:57.656Z,10.47
2018-12-13T13:29:25.828Z,10.37
2018-12-13T13:31:54.115Z,11.43
2018-12-13T13:34:22.288Z,10.73
2018-12-13T13:36:50.476Z,10.77
2018-12-13T13:39:18.680Z,10.63
2018-12-13T13:41:46.852Z,9.37
2018-12-13T13:44:15.448Z,10.03
2018-12-13T13:46:43.707Z,11.30
2018-12-13T13:49:11.912Z,10.30
2018-12-13T13:51:40.212Z,9.60
2018-12-13T13:54:08.384Z,10.10
2018-12-13T13:56:36.575Z,10.17
2018-12-13T13:59:04.760Z,10.70
2018-12-13T14:01:32.944Z,9.63
2018-12-13T14:04:01.161Z,9.27
2018-12-13T14:06:29.431Z,9.10
2018-12-13T14:08:57.598Z,10.03
2018-12-13T14:11:25.921Z,9.90
2018-12-13T14:13:54.105Z,9.67
2018-12-13T14:16:22.299Z,10.40
2018-12-13T14:18:50.540Z,9.90
2018-12-13T14:21:18.803Z,9.90
2018-12-13T14:23:46.980Z,10.67
2018-12-13T14:26:15.272Z,9.13
2018-12-13T14:28:43.449Z,9.40
2018-12-13T14:31:11.636Z,10.07
2018-12-13T14:33:39.844Z,11.13
2018-12-13T14:36:08.020Z,11.00
2018-12-13T14:38:36.295Z,9.87
2018-12-13T14:41:04.477Z,9.30
2018-12-13T14:43:32.657Z,9.47
2018-12-13T14:46:00.823Z,9.80
2018-12-13T14:48:29.001Z,10.53
2018-12-13T14:50:57.180Z,9.10
2018-12-13T14:53:25.355Z,8.73
2018-12-13T14:55:53.657Z,9.27
2018-12-13T14:58:21.928Z,10.07
2018-12-13T15:00:50.112Z,8.60
2018-12-13T15:03:18.328Z,10.90
2018-12-13T15:05:46.503Z,11.37
2018-12-13T15:08:14.745Z,10.10
2018-12-13T15:10:42.960Z,10.03
2018-12-13T15:13:11.172Z,10.70
2018-12-13T15:15:39.392Z,10.87
2018-12-13T15:18:07.583Z,9.77
2018-12-13T15:20:35.772Z,10.77
2018-12-13T15:23:04.048Z,10.33
2018-12-13T15:25:32.226Z,19.00
2018-12-13T15:28:00.552Z,9.73
2018-12-13T15:30:28.731Z,10.40
2018-12-13T15:32:56.941Z,12.07
2018-12-13T15:35:25.146Z,11.10
2018-12-13T15:37:53.320Z,10.60
2018-12-13T15:40:21.613Z,10.70
2018-12-13T15:42:49.799Z,11.57
2018-12-13T15:45:18.692Z,11.30
2018-12-13T15:47:46.867Z,10.10
2018-12-13T15:50:15.043Z,11.40
2018-12-13T15:52:43.318Z,10.10
2018-12-13T15:55:11.580Z,10.60
2018-12-13T15:57:39.819Z,9.00
2018-12-13T16:00:08.724Z,10.20
2018-12-13T16:02:36.992Z,10.40
2018-12-13T16:05:05.452Z,9.60
2018-12-13T16:07:33.739Z,9.70
2018-12-13T16:10:04.072Z,10.80
2018-12-13T16:12:32.199Z,9.63
2018-12-13T16:15:00.428Z,10.13
2018-12-13T16:17:28.625Z,9.80
2018-12-13T16:19:56.867Z,9.67
2018-12-13T16:22:25.040Z,9.07
2018-12-13T16:24:53.312Z,9.73
2018-12-13T16:27:21.576Z,10.53
2018-12-13T16:29:49.953Z,10.10
2018-12-13T16:32:18.199Z,9.80
2018-12-13T16:34:46.423Z,10.10
2018-12-13T16:37:14.599Z,10.10
2018-12-13T16:39:42.783Z,9.47
2018-12-13T16:42:11.114Z,10.30
2018-12-13T16:44:39.284Z,9.70
2018-12-13T16:47:07.631Z,10.50
2018-12-13T16:49:35.819Z,10.90
2018-12-13T16:52:04.128Z,10.80
2018-12-13T16:54:32.336Z,11.00
2018-12-13T16:57:00.532Z,9.93
2018-12-13T16:59:28.768Z,10.20
2018-12-13T17:01:57.012Z,9.97
2018-12-13T17:04:25.246Z,10.00
2018-12-13T17:06:53.503Z,8.80
2018-12-13T17:09:21.688Z,10.80
2018-12-13T17:11:49.968Z,11.03
2018-12-13T17:14:18.192Z,10.80
2018-12-13T17:16:46.376Z,10.10
2018-12-13T17:19:14.587Z,10.47
2018-12-13T17:21:42.771Z,10.20
2018-12-13T17:24:10.984Z,10.63
2018-12-13T17:26:39.168Z,10.20
2018-12-13T17:29:07.348Z,9.87
2018-12-13T17:31:35.528Z,9.60
2018-12-13T17:34:03.884Z,10.83
2018-12-13T17:36:32.073Z,11.30
2018-12-13T17:39:00.307Z,10.97
2018-12-13T17:41:28.519Z,10.47
2018-12-13T17:43:56.707Z,10.90
2018-12-13T17:46:24.896Z,11.10
2018-12-13T17:48:53.080Z,11.33
2018-12-13T17:51:21.260Z,10.97
2018-12-13T17:53:49.432Z,10.20
2018-12-13T17:56:17.648Z,14.43
2018-12-13T17:58:45.824Z,12.17
2018-12-13T18:01:14.120Z,10.63
2018-12-13T18:03:42.372Z,11.40
2018-12-13T18:06:10.574Z,11.50
2018-12-13T18:08:38.828Z,10.87
2018-12-13T18:11:07.100Z,11.60
2018-12-13T18:13:35.328Z,12.23
2018-12-13T18:16:03.515Z,13.20
2018-12-13T18:18:31.787Z,13.33
2018-12-13T18:20:59.976Z,12.73
2018-12-13T18:23:28.176Z,13.80
2018-12-13T18:25:56.376Z,12.47
2018-12-13T18:28:24.548Z,13.43
2018-12-13T18:30:52.728Z,13.50
2018-12-13T18:33:20.993Z,14.97
2018-12-13T18:35:49.261Z,15.07
2018-12-13T18:38:17.444Z,15.00
2018-12-13T18:40:45.672Z,14.13
2018-12-13T18:43:13.907Z,15.03
2018-12-13T18:45:42.095Z,14.53
2018-12-13T18:48:10.359Z,14.00
2018-12-13T18:50:38.545Z,14.90
2018-12-13T18:53:06.723Z,15.47
2018-12-13T18:55:34.903Z,15.20
2018-12-13T18:58:03.264Z,15.30
2018-12-13T19:00:31.451Z,16.13
2018-12-13T19:02:59.661Z,15.57
2018-12-13T19:05:27.927Z,14.40
2018-12-13T19:07:56.100Z,15.07
2018-12-13T19:10:24.392Z,14.37
2018-12-13T19:12:52.596Z,16.47
2018-12-13T19:15:20.812Z,14.83
2018-12-13T19:17:48.980Z,15.43
2018-12-13T19:20:17.260Z,15.77
2018-12-13T19:22:45.433Z,16.37
2018-12-13T19:25:13.724Z,14.47
2018-12-13T19:27:41.895Z,15.23
2018-12-13T19:30:10.200Z,15.00
2018-12-13T19:32:38.392Z,15.30
2018-12-13T19:35:06.764Z,16.20
2018-12-13T19:37:34.969Z,16.23
2018-12-13T19:40:03.666Z,15.20
2018-12-13T19:42:31.932Z,15.60
2018-12-13T19:45:00.116Z,15.97
2018-12-13T19:47:28.300Z,16.10
2018-12-13T19:49:56.473Z,15.17
2018-12-13T19:52:24.652Z,15.30
2018-12-13T19:54:52.829Z,18.30
2018-12-13T19:57:21.110Z,17.50
2018-12-13T19:59:49.295Z,15.50
2018-12-13T20:02:17.479Z,15.63
2018-12-13T20:04:45.656Z,15.50
2018-12-13T20:07:13.871Z,17.63
2018-12-13T20:09:42.072Z,17.50
2018-12-13T20:12:10.736Z,17.03
2018-12-13T20:14:39.132Z,16.87
2018-12-13T20:17:07.504Z,17.00
2018-12-13T20:19:35.721Z,15.97
2018-12-13T20:22:04.002Z,15.43
2018-12-13T20:24:32.191Z,16.50
2018-12-13T20:27:00.384Z,16.57
2018-12-13T20:29:28.843Z,14.10
2018-12-13T20:31:57.064Z,16.30
2018-12-13T20:34:25.268Z,15.60
2018-12-13T20:36:53.452Z,16.90
2018-12-13T20:39:21.631Z,18.67
2018-12-13T20:41:49.857Z,15.73
2018-12-13T20:44:18.028Z,16.13
2018-12-13T20:46:46.217Z,15.20
2018-12-13T20:49:14.430Z,15.83
2018-12-13T20:51:42.640Z,17.40
2018-12-13T20:54:10.808Z,15.00
2018-12-13T20:56:39.014Z,15.90
2018-12-13T20:59:07.211Z,16.60
2018-12-13T21:01:35.492Z,16.03
2018-12-13T21:04:03.763Z,15.80
2018-12-13T21:06:31.940Z,16.40
2018-12-13T21:09:00.124Z,15.70
2018-12-13T21:11:28.326Z,16.53
2018-12-13T21:13:56.503Z,16.47
2018-12-13T21:16:24.801Z,16.80
2018-12-13T21:18:52.987Z,16.50
2018-12-13T21:21:21.172Z,15.63
2018-12-13T21:23:49.392Z,15.67
2018-12-13T21:26:17.583Z,15.83
2018-12-13T21:28:45.785Z,14.40
2018-12-13T21:31:13.964Z,15.20
2018-12-13T21:33:42.225Z,14.50
2018-12-13T21:36:10.409Z,16.33
2018-12-13T21:38:38.624Z,15.17
2018-12-13T21:41:06.805Z,17.63
2018-12-13T21:43:35.080Z,14.90
2018-12-13T21:46:03.362Z,14.90
2018-12-13T21:48:31.539Z,16.57
2018-12-13T21:50:59.724Z,16.30
2018-12-13T21:53:28.225Z,16.80
2018-12-13T21:55:56.400Z,16.73
2018-12-13T21:58:24.577Z,14.40
2018-12-13T22:00:52.780Z,15.23
2018-12-13T22:03:20.956Z,16.80
2018-12-13T22:05:49.297Z,15.60
2018-12-13T22:08:17.505Z,15.77
2018-12-13T22:10:45.696Z,14.63
2018-12-13T22:13:13.966Z,15.73
2018-12-13T22:15:42.128Z,15.30
2018-12-13T22:18:10.431Z,15.87
2018-12-13T22:20:38.642Z,15.10
2018-12-13T22:23:06.863Z,14.47
2018-12-13T22:25:35.046Z,15.63
2018-12-13T22:28:03.228Z,15.63
2018-12-13T22:30:31.412Z,13.90
2018-12-13T22:32:59.611Z,14.87
2018-12-13T22:35:27.796Z,12.93
2018-12-13T22:37:55.995Z,12.50
2018-12-13T22:40:24.256Z,12.23
2018-12-13T22:42:52.435Z,12.00
2018-12-13T22:45:20.690Z,13.93
2018-12-13T22:47:48.880Z,12.57
2018-12-13T22:50:17.177Z,12.03
2018-12-13T22:52:45.656Z,13.93
2018-12-13T22:55:13.908Z,11.30
2018-12-13T22:57:42.108Z,12.90
2018-12-13T23:00:10.550Z,12.50
2018-12-13T23:02:38.904Z,13.03
2018-12-13T23:05:07.268Z,13.27
2018-12-13T23:07:35.610Z,13.57
2018-12-13T23:10:04.072Z,13.87
2018-12-13T23:12:32.350Z,13.10
2018-12-13T23:15:00.580Z,13.40
2018-12-13T23:17:28.876Z,14.13
2018-12-13T23:19:57.044Z,11.97
2018-12-13T23:22:25.232Z,13.67
2018-12-13T23:24:53.403Z,11.83
2018-12-13T23:27:21.636Z,12.23
2018-12-13T23:29:49.816Z,11.83
2018-12-13T23:32:18.091Z,12.30
2018-12-13T23:34:46.268Z,11.67
2018-12-13T23:37:14.576Z,12.93
2018-12-13T23:39:42.773Z,13.13
2018-12-13T23:42:10.963Z,11.80
2018-12-13T23:44:39.136Z,13.13
2018-12-13T23:47:07.320Z,13.70
2018-12-13T23:49:35.488Z,13.10
2018-12-13T23:52:03.763Z,13.30
2018-12-13T23:54:32.036Z,12.70
2018-12-13T23:57:00.204Z,12.83
2018-12-13T23:59:28.388Z,13.23
